createdAt,value
2022-10-07T00:00:24.447Z,1024.63
2022-10-07T00:01:24.537Z,1024.63
2022-10-07T00:02:24.496Z,1024.62
2022-10-07T00:03:24.408Z,1024.59
2022-10-07T00:04:24.406Z,1024.55
2022-10-07T00:05:24.392Z,1024.54
2022-10-07T00:06:24.408Z,1024.51
2022-10-07T00:07:24.377Z,1024.53
2022-10-07T00:08:24.361Z,1024.59
2022-10-07T00:09:24.346Z,1024.59
2022-10-07T00:10:24.352Z,1024.59
2022-10-07T00:11:24.351Z,1024.60
2022-10-07T00:12:24.315Z,1024.57
2022-10-07T00:13:24.364Z,1024.59
2022-10-07T00:14:24.289Z,1024.55
2022-10-07T00:15:24.281Z,1024.59
2022-10-07T00:16:24.353Z,1024.56
2022-10-07T00:17:24.269Z,1024.55
2022-10-07T00:18:24.246Z,1024.57
2022-10-07T00:19:24.235Z,1024.55
2022-10-07T00:20:24.239Z,1024.58
2022-10-07T00:21:24.247Z,1024.62
2022-10-07T00:22:24.201Z,1024.55
2022-10-07T00:23:24.192Z,1024.59
2022-10-07T00:24:24.186Z,1024.64
2022-10-07T00:25:24.172Z,1024.60
2022-10-07T00:26:24.595Z,1024.63
2022-10-07T00:27:24.151Z,1024.54
2022-10-07T00:28:24.193Z,1024.57
2022-10-07T00:29:24.134Z,1024.49
2022-10-07T00:30:24.127Z,1024.46
2022-10-07T00:31:24.181Z,1024.47
2022-10-07T00:32:24.099Z,1024.49
2022-10-07T00:33:24.092Z,1024.52
2022-10-07T00:34:24.073Z,1024.57
2022-10-07T00:35:24.053Z,1024.56
2022-10-07T00:36:24.066Z,1024.56
2022-10-07T00:37:24.034Z,1024.51
2022-10-07T00:38:24.018Z,1024.54
2022-10-07T00:39:24.013Z,1024.58
2022-10-07T00:40:23.992Z,1024.59
2022-10-07T00:41:24.016Z,1024.62
2022-10-07T00:42:24.120Z,1024.61
2022-10-07T00:43:23.957Z,1024.54
2022-10-07T00:44:23.952Z,1024.50
2022-10-07T00:45:23.945Z,1024.41
2022-10-07T00:46:24.028Z,1024.39
2022-10-07T00:47:23.931Z,1024.39
2022-10-07T00:48:23.903Z,1024.37
2022-10-07T00:49:23.893Z,1024.36
2022-10-07T00:50:23.879Z,1024.41
2022-10-07T00:51:23.879Z,1024.36
2022-10-07T00:52:23.861Z,1024.37
2022-10-07T00:53:23.843Z,1024.42
2022-10-07T00:54:23.836Z,1024.38
2022-10-07T00:55:23.830Z,1024.36
2022-10-07T00:56:23.843Z,1024.39
2022-10-07T00:57:23.808Z,1024.34
2022-10-07T00:58:23.819Z,1024.34
2022-10-07T00:59:23.803Z,1024.32
2022-10-07T01:00:23.806Z,1024.31
2022-10-07T01:01:23.843Z,1024.30
2022-10-07T01:02:23.810Z,1024.32
2022-10-07T01:03:23.757Z,1024.32
2022-10-07T01:04:23.730Z,1024.30
2022-10-07T01:05:23.722Z,1024.32
2022-10-07T01:06:23.747Z,1024.31
2022-10-07T01:07:23.712Z,1024.28
2022-10-07T01:08:23.690Z,1024.24
2022-10-07T01:09:23.678Z,1024.21
2022-10-07T01:10:23.680Z,1024.21
2022-10-07T01:11:23.700Z,1024.19
2022-10-07T01:12:23.661Z,1024.18
2022-10-07T01:13:23.645Z,1024.22
2022-10-07T01:14:23.644Z,1024.19
2022-10-07T01:15:23.614Z,1024.19
2022-10-07T01:16:23.688Z,1024.18
2022-10-07T01:17:23.597Z,1024.22
2022-10-07T01:18:23.580Z,1024.26
2022-10-07T01:19:23.572Z,1024.20
2022-10-07T01:20:23.566Z,1024.20
2022-10-07T01:21:23.589Z,1024.11
2022-10-07T01:22:23.540Z,1024.17
2022-10-07T01:23:23.531Z,1024.17
2022-10-07T01:24:23.548Z,1024.11
2022-10-07T01:25:23.614Z,1024.08
2022-10-07T01:26:23.544Z,1024.05
2022-10-07T01:27:23.481Z,1024.03
2022-10-07T01:28:23.522Z,1024.02
2022-10-07T01:29:23.510Z,1024.01
2022-10-07T01:30:23.472Z,1024.01
2022-10-07T01:31:23.535Z,1023.94
2022-10-07T01:32:23.430Z,1023.94
2022-10-07T01:33:23.423Z,1023.94
2022-10-07T01:34:23.408Z,1023.93
2022-10-07T01:35:23.510Z,1023.84
2022-10-07T01:36:23.425Z,1023.89
2022-10-07T01:37:23.386Z,1023.86
2022-10-07T01:38:23.374Z,1023.87
2022-10-07T01:39:23.354Z,1023.80
2022-10-07T01:40:23.342Z,1023.82
2022-10-07T01:41:23.373Z,1023.81
2022-10-07T01:42:23.336Z,1023.83
2022-10-07T01:43:23.340Z,1023.92
2022-10-07T01:44:24.164Z,1023.80
2022-10-07T01:45:23.291Z,1023.88
2022-10-07T01:46:23.407Z,1023.87
2022-10-07T01:47:23.289Z,1023.84
2022-10-07T01:48:23.280Z,1023.85
2022-10-07T01:49:23.247Z,1023.87
2022-10-07T01:50:23.239Z,1023.81
2022-10-07T01:51:23.253Z,1023.82
2022-10-07T01:52:23.226Z,1023.80
2022-10-07T01:53:23.203Z,1023.69
2022-10-07T01:54:23.199Z,1023.76
2022-10-07T01:55:23.212Z,1023.74
2022-10-07T01:56:30.237Z,1023.76
2022-10-07T01:57:23.151Z,1023.74
2022-10-07T01:58:23.143Z,1023.71
2022-10-07T01:59:23.131Z,1023.67
2022-10-07T02:00:23.121Z,1023.67
2022-10-07T02:01:23.200Z,1023.67
2022-10-07T02:02:23.133Z,1023.66
2022-10-07T02:03:23.199Z,1023.67
2022-10-07T02:04:23.111Z,1023.63
2022-10-07T02:05:23.081Z,1023.62
2022-10-07T02:06:23.133Z,1023.61
2022-10-07T02:07:23.058Z,1023.62
2022-10-07T02:08:23.036Z,1023.64
2022-10-07T02:09:23.025Z,1023.59
2022-10-07T02:10:23.025Z,1023.56
2022-10-07T02:11:23.016Z,1023.58
2022-10-07T02:12:22.992Z,1023.61
2022-10-07T02:13:22.986Z,1023.57
2022-10-07T02:14:22.978Z,1023.63
2022-10-07T02:15:22.966Z,1023.56
2022-10-07T02:16:23.078Z,1023.54
2022-10-07T02:17:22.991Z,1023.50
2022-10-07T02:18:22.956Z,1023.52
2022-10-07T02:19:22.933Z,1023.55
2022-10-07T02:20:22.911Z,1023.49
2022-10-07T02:21:22.920Z,1023.51
2022-10-07T02:22:22.901Z,1023.50
2022-10-07T02:23:22.892Z,1023.51
2022-10-07T02:24:22.915Z,1023.52
2022-10-07T02:25:22.860Z,1023.51
2022-10-07T02:26:22.859Z,1023.50
2022-10-07T02:27:22.836Z,1023.51
2022-10-07T02:28:22.860Z,1023.53
2022-10-07T02:29:22.809Z,1023.54
2022-10-07T02:30:22.849Z,1023.54
2022-10-07T02:31:22.882Z,1023.49
2022-10-07T02:32:22.774Z,1023.49
2022-10-07T02:33:22.764Z,1023.48
2022-10-07T02:34:22.770Z,1023.49
2022-10-07T02:35:22.742Z,1023.42
2022-10-07T02:36:22.744Z,1023.44
2022-10-07T02:37:22.723Z,1023.49
2022-10-07T02:38:22.711Z,1023.39
2022-10-07T02:39:22.699Z,1023.42
2022-10-07T02:40:22.692Z,1023.40
2022-10-07T02:41:22.686Z,1023.41
2022-10-07T02:42:22.665Z,1023.43
2022-10-07T02:43:22.683Z,1023.38
2022-10-07T02:44:22.643Z,1023.39
2022-10-07T02:45:26.680Z,1023.34
2022-10-07T02:46:22.736Z,1023.33
2022-10-07T02:47:22.612Z,1023.29
2022-10-07T02:48:22.599Z,1023.31
2022-10-07T02:49:22.590Z,1023.30
2022-10-07T02:50:22.597Z,1023.32
2022-10-07T02:51:22.581Z,1023.26
2022-10-07T02:52:22.579Z,1023.29
2022-10-07T02:53:22.550Z,1023.27
2022-10-07T02:54:22.537Z,1023.27
2022-10-07T02:55:22.537Z,1023.29
2022-10-07T02:56:22.531Z,1023.31
2022-10-07T02:57:22.504Z,1023.27
2022-10-07T02:58:22.494Z,1023.29
2022-10-07T02:59:22.485Z,1023.30
2022-10-07T03:00:22.471Z,1023.26
2022-10-07T03:01:22.543Z,1023.22
2022-10-07T03:02:22.448Z,1023.22
2022-10-07T03:03:22.497Z,1023.19
2022-10-07T03:04:22.504Z,1023.18
2022-10-07T03:05:22.420Z,1023.22
2022-10-07T03:06:22.433Z,1023.18
2022-10-07T03:07:22.396Z,1023.20
2022-10-07T03:08:22.385Z,1023.20
2022-10-07T03:09:22.373Z,1023.22
2022-10-07T03:10:22.362Z,1023.22
2022-10-07T03:11:22.363Z,1023.19
2022-10-07T03:12:22.342Z,1023.19
2022-10-07T03:13:22.330Z,1023.16
2022-10-07T03:14:22.331Z,1023.14
2022-10-07T03:15:22.311Z,1023.11
2022-10-07T03:16:22.448Z,1023.10
2022-10-07T03:17:22.288Z,1023.09
2022-10-07T03:18:22.274Z,1023.08
2022-10-07T03:19:22.264Z,1023.04
2022-10-07T03:20:22.254Z,1023.04
2022-10-07T03:21:22.257Z,1023.04
2022-10-07T03:22:22.249Z,1023.04
2022-10-07T03:23:22.222Z,1023.04
2022-10-07T03:24:22.210Z,1023.01
2022-10-07T03:25:22.200Z,1023.01
2022-10-07T03:26:22.199Z,1023.01
2022-10-07T03:27:22.183Z,1023.02
2022-10-07T03:28:22.215Z,1023.03
2022-10-07T03:29:22.157Z,1023.03
2022-10-07T03:30:24.521Z,1023.01
2022-10-07T03:31:22.244Z,1023.04
2022-10-07T03:32:22.122Z,1023.05
2022-10-07T03:33:22.114Z,1023.01
2022-10-07T03:34:22.099Z,1023.02
2022-10-07T03:35:22.088Z,1023.00
2022-10-07T03:36:22.088Z,1023.01
2022-10-07T03:37:22.068Z,1022.99
2022-10-07T03:38:22.081Z,1022.96
2022-10-07T03:39:22.050Z,1022.93
2022-10-07T03:40:22.045Z,1022.95
2022-10-07T03:41:22.056Z,1022.95
2022-10-07T03:42:22.021Z,1022.92
2022-10-07T03:43:22.011Z,1022.90
2022-10-07T03:44:21.988Z,1022.86
2022-10-07T03:45:21.984Z,1022.84
2022-10-07T03:46:22.011Z,1022.83
2022-10-07T03:47:21.957Z,1022.79
2022-10-07T03:48:21.944Z,1022.81
2022-10-07T03:49:21.954Z,1022.81
2022-10-07T03:50:21.932Z,1022.80
2022-10-07T03:51:21.915Z,1022.79
2022-10-07T03:52:21.901Z,1022.79
2022-10-07T03:53:21.892Z,1022.78
2022-10-07T03:54:21.895Z,1022.82
2022-10-07T03:55:21.880Z,1022.77
2022-10-07T03:56:21.857Z,1022.79
2022-10-07T03:57:21.847Z,1022.77
2022-10-07T03:58:21.834Z,1022.76
2022-10-07T03:59:21.826Z,1022.72
2022-10-07T04:00:21.836Z,1022.67
2022-10-07T04:01:21.845Z,1022.69
2022-10-07T04:02:21.810Z,1022.71
2022-10-07T04:03:21.834Z,1022.72
2022-10-07T04:04:21.770Z,1022.72
2022-10-07T04:05:21.761Z,1022.73
2022-10-07T04:06:21.770Z,1022.70
2022-10-07T04:07:21.741Z,1022.70
2022-10-07T04:08:21.726Z,1022.67
2022-10-07T04:09:21.718Z,1022.69
2022-10-07T04:10:21.721Z,1022.71
2022-10-07T04:11:21.704Z,1022.69
2022-10-07T04:12:21.685Z,1022.67
2022-10-07T04:13:21.672Z,1022.71
2022-10-07T04:14:21.659Z,1022.67
2022-10-07T04:15:21.651Z,1022.67
2022-10-07T04:16:21.680Z,1022.66
2022-10-07T04:17:21.629Z,1022.61
2022-10-07T04:18:21.655Z,1022.60
2022-10-07T04:19:21.606Z,1022.65
2022-10-07T04:20:21.617Z,1022.63
2022-10-07T04:21:21.595Z,1022.61
2022-10-07T04:22:21.578Z,1022.64
2022-10-07T04:23:21.564Z,1022.65
2022-10-07T04:24:21.552Z,1022.64
2022-10-07T04:25:21.549Z,1022.60
2022-10-07T04:26:21.557Z,1022.61
2022-10-07T04:27:46.756Z,1022.59
2022-10-07T04:28:22.552Z,1022.60
2022-10-07T04:29:21.540Z,1022.60
2022-10-07T04:30:21.484Z,1022.60
2022-10-07T04:31:21.596Z,1022.64
2022-10-07T04:32:21.466Z,1022.55
2022-10-07T04:33:21.454Z,1022.56
2022-10-07T04:34:21.444Z,1022.55
2022-10-07T04:35:21.431Z,1022.56
2022-10-07T04:36:21.427Z,1022.58
2022-10-07T04:37:21.422Z,1022.56
2022-10-07T04:38:25.204Z,1022.56
2022-10-07T04:39:29.941Z,1022.55
2022-10-07T04:40:22.373Z,1022.55
2022-10-07T04:41:21.377Z,1022.56
2022-10-07T04:42:21.386Z,1022.55
2022-10-07T04:43:21.345Z,1022.53
2022-10-07T04:44:21.331Z,1022.48
2022-10-07T04:45:21.323Z,1022.48
2022-10-07T04:46:21.347Z,1022.48
2022-10-07T04:47:21.303Z,1022.47
2022-10-07T04:48:21.291Z,1022.47
2022-10-07T04:49:21.281Z,1022.43
2022-10-07T04:50:21.266Z,1022.43
2022-10-07T04:51:21.271Z,1022.40
2022-10-07T04:52:21.255Z,1022.39
2022-10-07T04:53:21.238Z,1022.35
2022-10-07T04:54:21.228Z,1022.37
2022-10-07T04:55:21.220Z,1022.35
2022-10-07T04:56:21.211Z,1022.36
2022-10-07T04:57:21.193Z,1022.35
2022-10-07T04:58:21.197Z,1022.32
2022-10-07T04:59:23.629Z,1022.32
2022-10-07T05:00:21.159Z,1022.30
2022-10-07T05:01:21.201Z,1022.38
2022-10-07T05:02:21.192Z,1022.33
2022-10-07T05:03:21.152Z,1022.31
2022-10-07T05:04:21.114Z,1022.33
2022-10-07T05:05:21.138Z,1022.30
2022-10-07T05:06:21.105Z,1022.28
2022-10-07T05:07:21.101Z,1022.23
2022-10-07T05:08:21.072Z,1022.26
2022-10-07T05:09:21.065Z,1022.26
2022-10-07T05:10:21.072Z,1022.24
2022-10-07T05:11:21.041Z,1022.20
2022-10-07T05:12:21.029Z,1022.23
2022-10-07T05:13:21.019Z,1022.19
2022-10-07T05:14:21.024Z,1022.19
2022-10-07T05:15:21.001Z,1022.17
2022-10-07T05:16:21.062Z,1022.17
2022-10-07T05:17:20.976Z,1022.16
2022-10-07T05:18:20.965Z,1022.16
2022-10-07T05:19:20.955Z,1022.18
2022-10-07T05:20:20.955Z,1022.17
2022-10-07T05:21:20.936Z,1022.14
2022-10-07T05:22:20.921Z,1022.17
2022-10-07T05:23:24.431Z,1022.17
2022-10-07T05:24:21.897Z,1022.14
2022-10-07T05:25:20.899Z,1022.15
2022-10-07T05:26:20.881Z,1022.17
2022-10-07T05:27:20.868Z,1022.13
2022-10-07T05:28:20.907Z,1022.14
2022-10-07T05:29:20.845Z,1022.11
2022-10-07T05:30:20.879Z,1022.12
2022-10-07T05:31:20.864Z,1022.09
2022-10-07T05:32:20.814Z,1022.07
2022-10-07T05:33:20.808Z,1022.05
2022-10-07T05:34:20.792Z,1022.03
2022-10-07T05:35:20.796Z,1022.07
2022-10-07T05:36:20.770Z,1022.06
2022-10-07T05:37:20.761Z,1022.02
2022-10-07T05:38:20.750Z,1021.96
2022-10-07T05:39:20.751Z,1021.94
2022-10-07T05:40:20.725Z,1021.90
2022-10-07T05:41:20.716Z,1021.92
2022-10-07T05:42:20.704Z,1021.93
2022-10-07T05:43:20.697Z,1021.92
2022-10-07T05:44:20.692Z,1021.89
2022-10-07T05:45:20.675Z,1021.92
2022-10-07T05:46:20.779Z,1021.91
2022-10-07T05:47:20.654Z,1021.97
2022-10-07T05:48:20.644Z,1021.96
2022-10-07T05:49:20.644Z,1021.94
2022-10-07T05:50:20.618Z,1021.90
2022-10-07T05:51:20.607Z,1021.90
2022-10-07T05:52:20.611Z,1021.87
2022-10-07T05:53:20.587Z,1021.89
2022-10-07T05:54:20.582Z,1021.92
2022-10-07T05:55:20.565Z,1021.88
2022-10-07T05:56:20.551Z,1021.94
2022-10-07T05:57:20.543Z,1021.95
2022-10-07T05:58:20.529Z,1021.92
2022-10-07T05:59:20.535Z,1021.90
2022-10-07T06:00:20.507Z,1021.89
2022-10-07T06:01:20.505Z,1021.89
2022-10-07T06:02:20.639Z,1021.95
2022-10-07T06:03:20.558Z,1021.90
2022-10-07T06:04:20.480Z,1021.91
2022-10-07T06:05:20.456Z,1021.86
2022-10-07T06:06:20.443Z,1021.91
2022-10-07T06:07:22.695Z,1021.89
2022-10-07T06:08:20.422Z,1021.88
2022-10-07T06:09:20.422Z,1021.89
2022-10-07T06:10:20.401Z,1021.90
2022-10-07T06:11:20.390Z,1021.90
2022-10-07T06:12:20.379Z,1021.89
2022-10-07T06:13:20.372Z,1021.96
2022-10-07T06:14:20.356Z,1021.94
2022-10-07T06:15:20.360Z,1021.90
2022-10-07T06:16:20.409Z,1021.92
2022-10-07T06:17:20.325Z,1021.95
2022-10-07T06:18:20.450Z,1021.90
2022-10-07T06:19:20.305Z,1021.91
2022-10-07T06:20:20.302Z,1021.92
2022-10-07T06:21:20.282Z,1021.91
2022-10-07T06:22:20.273Z,1021.90
2022-10-07T06:23:20.259Z,1021.87
2022-10-07T06:24:20.250Z,1021.93
2022-10-07T06:25:20.253Z,1021.88
2022-10-07T06:26:20.234Z,1021.83
2022-10-07T06:27:20.215Z,1021.84
2022-10-07T06:28:20.283Z,1021.76
2022-10-07T06:29:20.244Z,1021.81
2022-10-07T06:30:20.188Z,1021.80
2022-10-07T06:31:21.278Z,1021.82
2022-10-07T06:32:20.191Z,1021.81
2022-10-07T06:33:20.151Z,1021.79
2022-10-07T06:34:20.168Z,1021.76
2022-10-07T06:35:20.128Z,1021.80
2022-10-07T06:36:20.150Z,1021.81
2022-10-07T06:37:20.110Z,1021.83
2022-10-07T06:38:20.098Z,1021.80
2022-10-07T06:39:20.098Z,1021.79
2022-10-07T06:40:20.078Z,1021.85
2022-10-07T06:41:20.066Z,1021.74
2022-10-07T06:42:20.055Z,1021.75
2022-10-07T06:43:20.044Z,1021.81
2022-10-07T06:44:20.048Z,1021.81
2022-10-07T06:45:20.022Z,1021.79
2022-10-07T06:46:20.110Z,1021.77
2022-10-07T06:47:20.004Z,1021.81
2022-10-07T06:48:19.992Z,1021.79
2022-10-07T06:49:19.991Z,1021.84
2022-10-07T06:50:20.025Z,1021.78
2022-10-07T06:51:19.982Z,1021.80
2022-10-07T06:52:19.950Z,1021.83
2022-10-07T06:53:19.933Z,1021.82
2022-10-07T06:54:19.936Z,1021.83
2022-10-07T06:55:19.914Z,1021.83
2022-10-07T06:56:19.910Z,1021.86
2022-10-07T06:57:44.410Z,1021.80
2022-10-07T06:58:20.879Z,1021.81
2022-10-07T06:59:19.878Z,1021.82
2022-10-07T07:00:19.859Z,1021.84
2022-10-07T07:01:19.932Z,1021.82
2022-10-07T07:02:19.955Z,1021.85
2022-10-07T07:03:19.826Z,1021.76
2022-10-07T07:04:19.828Z,1021.77
2022-10-07T07:05:19.811Z,1021.77
2022-10-07T07:06:19.811Z,1021.76
2022-10-07T07:07:19.783Z,1021.83
2022-10-07T07:08:19.779Z,1021.84
2022-10-07T07:09:19.801Z,1021.86
2022-10-07T07:10:19.757Z,1021.81
2022-10-07T07:11:19.741Z,1021.88
2022-10-07T07:12:19.737Z,1021.88
2022-10-07T07:13:19.722Z,1021.87
2022-10-07T07:14:19.724Z,1021.90
2022-10-07T07:15:19.697Z,1021.91
2022-10-07T07:16:19.735Z,1021.90
2022-10-07T07:17:19.682Z,1021.94
2022-10-07T07:18:19.670Z,1021.89
2022-10-07T07:19:19.669Z,1021.95
2022-10-07T07:20:19.674Z,1021.90
2022-10-07T07:21:19.636Z,1021.90
2022-10-07T07:22:19.646Z,1021.90
2022-10-07T07:23:19.613Z,1021.84
2022-10-07T07:24:19.660Z,1021.83
2022-10-07T07:25:19.601Z,1021.83
2022-10-07T07:26:19.585Z,1021.79
2022-10-07T07:27:19.576Z,1021.84
2022-10-07T07:28:19.630Z,1021.87
2022-10-07T07:29:19.563Z,1021.83
2022-10-07T07:30:19.545Z,1021.83
2022-10-07T07:31:19.586Z,1021.86
2022-10-07T07:32:19.526Z,1021.83
2022-10-07T07:33:19.511Z,1021.82
2022-10-07T07:34:19.517Z,1021.79
2022-10-07T07:35:19.489Z,1021.79
2022-10-07T07:36:19.481Z,1021.71
2022-10-07T07:37:19.468Z,1021.73
2022-10-07T07:38:23.341Z,1021.70
2022-10-07T07:39:20.461Z,1021.72
2022-10-07T07:40:19.440Z,1021.75
2022-10-07T07:41:19.427Z,1021.72
2022-10-07T07:42:19.419Z,1021.70
2022-10-07T07:43:19.407Z,1021.67
2022-10-07T07:44:19.417Z,1021.68
2022-10-07T07:45:19.388Z,1021.71
2022-10-07T07:46:19.434Z,1021.62
2022-10-07T07:47:19.366Z,1021.58
2022-10-07T07:48:19.357Z,1021.60
2022-10-07T07:49:19.355Z,1021.62
2022-10-07T07:50:19.338Z,1021.59
2022-10-07T07:51:19.324Z,1021.63
2022-10-07T07:52:19.318Z,1021.65
2022-10-07T07:53:19.303Z,1021.64
2022-10-07T07:54:19.323Z,1021.67
2022-10-07T07:55:19.285Z,1021.69
2022-10-07T07:56:19.299Z,1021.64
2022-10-07T07:57:26.860Z,1021.70
2022-10-07T07:58:19.260Z,1021.69
2022-10-07T07:59:19.266Z,1021.69
2022-10-07T08:00:19.248Z,1021.64
2022-10-07T08:01:19.293Z,1021.68
2022-10-07T08:02:19.300Z,1021.66
2022-10-07T08:03:19.208Z,1021.63
2022-10-07T08:04:19.204Z,1021.65
2022-10-07T08:05:23.638Z,1021.67
2022-10-07T08:06:20.171Z,1021.59
2022-10-07T08:07:19.163Z,1021.59
2022-10-07T08:08:19.154Z,1021.60
2022-10-07T08:09:19.156Z,1021.61
2022-10-07T08:10:19.164Z,1021.63
2022-10-07T08:11:19.122Z,1021.63
2022-10-07T08:12:19.116Z,1021.63
2022-10-07T08:13:19.101Z,1021.60
2022-10-07T08:14:19.164Z,1021.60
2022-10-07T08:15:19.084Z,1021.57
2022-10-07T08:16:19.075Z,1021.60
2022-10-07T08:17:19.064Z,1021.60
2022-10-07T08:18:19.055Z,1021.55
2022-10-07T08:19:19.050Z,1021.52
2022-10-07T08:20:19.041Z,1021.58
2022-10-07T08:21:19.046Z,1021.53
2022-10-07T08:22:19.014Z,1021.49
2022-10-07T08:23:19.029Z,1021.54
2022-10-07T08:24:19.002Z,1021.51
2022-10-07T08:25:18.994Z,1021.48
2022-10-07T08:26:18.995Z,1021.40
2022-10-07T08:27:18.966Z,1021.47
2022-10-07T08:28:18.991Z,1021.45
2022-10-07T08:29:18.965Z,1021.46
2022-10-07T08:30:18.933Z,1021.45
2022-10-07T08:31:18.974Z,1021.40
2022-10-07T08:32:18.915Z,1021.40
2022-10-07T08:33:18.907Z,1021.39
2022-10-07T08:34:18.907Z,1021.36
2022-10-07T08:35:18.882Z,1021.40
2022-10-07T08:36:18.907Z,1021.38
2022-10-07T08:37:18.870Z,1021.34
2022-10-07T08:38:18.852Z,1021.37
2022-10-07T08:39:18.856Z,1021.34
2022-10-07T08:40:18.832Z,1021.38
2022-10-07T08:41:18.819Z,1021.34
2022-10-07T08:42:18.826Z,1021.31
2022-10-07T08:43:18.799Z,1021.30
2022-10-07T08:44:18.800Z,1021.25
2022-10-07T08:45:18.778Z,1021.25
2022-10-07T08:46:18.815Z,1021.28
2022-10-07T08:47:18.757Z,1021.26
2022-10-07T08:48:18.749Z,1021.23
2022-10-07T08:49:18.752Z,1021.24
2022-10-07T08:50:20.076Z,1021.21
2022-10-07T08:51:18.724Z,1021.15
2022-10-07T08:52:18.705Z,1021.14
2022-10-07T08:53:18.705Z,1021.13
2022-10-07T08:54:18.702Z,1021.13
2022-10-07T08:55:18.781Z,1021.04
2022-10-07T08:56:18.667Z,1021.12
2022-10-07T08:57:18.653Z,1021.08
2022-10-07T08:58:18.660Z,1021.07
2022-10-07T08:59:18.641Z,1021.10
2022-10-07T09:00:18.624Z,1021.10
2022-10-07T09:01:18.689Z,1021.09
2022-10-07T09:02:18.620Z,1021.10
2022-10-07T09:03:24.125Z,1021.07
2022-10-07T09:04:19.589Z,1021.13
2022-10-07T09:05:18.570Z,1021.09
2022-10-07T09:06:18.558Z,1020.99
2022-10-07T09:07:18.555Z,1021.00
2022-10-07T09:08:18.538Z,1021.02
2022-10-07T09:09:18.547Z,1020.98
2022-10-07T09:10:18.522Z,1021.03
2022-10-07T09:11:18.509Z,1020.97
2022-10-07T09:12:18.496Z,1020.97
2022-10-07T09:13:18.488Z,1020.91
2022-10-07T09:14:18.519Z,1020.98
2022-10-07T09:15:18.469Z,1020.98
2022-10-07T09:16:18.539Z,1020.90
2022-10-07T09:17:18.446Z,1020.92
2022-10-07T09:18:18.434Z,1020.91
2022-10-07T09:19:18.434Z,1020.92
2022-10-07T09:20:18.434Z,1020.85
2022-10-07T09:21:18.469Z,1020.86
2022-10-07T09:22:18.395Z,1020.88
2022-10-07T09:23:18.401Z,1020.88
2022-10-07T09:24:18.376Z,1020.84
2022-10-07T09:25:18.375Z,1020.84
2022-10-07T09:26:18.358Z,1020.79
2022-10-07T09:27:18.350Z,1020.79
2022-10-07T09:28:18.420Z,1020.78
2022-10-07T09:29:18.325Z,1020.80
2022-10-07T09:30:18.346Z,1020.73
2022-10-07T09:31:18.329Z,1020.73
2022-10-07T09:32:18.335Z,1020.72
2022-10-07T09:33:18.344Z,1020.77
2022-10-07T09:34:18.277Z,1020.68
2022-10-07T09:35:18.279Z,1020.76
2022-10-07T09:36:18.267Z,1020.73
2022-10-07T09:37:18.244Z,1020.74
2022-10-07T09:38:18.237Z,1020.75
2022-10-07T09:39:18.226Z,1020.71
2022-10-07T09:40:18.226Z,1020.62
2022-10-07T09:41:18.207Z,1020.65
2022-10-07T09:42:18.199Z,1020.65
2022-10-07T09:43:18.189Z,1020.63
2022-10-07T09:44:18.181Z,1020.66
2022-10-07T09:45:18.177Z,1020.62
2022-10-07T09:46:18.282Z,1020.60
2022-10-07T09:47:18.148Z,1020.59
2022-10-07T09:48:18.143Z,1020.61
2022-10-07T09:49:21.052Z,1020.58
2022-10-07T09:50:19.235Z,1020.55
2022-10-07T09:51:18.120Z,1020.46
2022-10-07T09:52:18.104Z,1020.49
2022-10-07T09:53:18.095Z,1020.50
2022-10-07T09:54:18.099Z,1020.50
2022-10-07T09:55:18.083Z,1020.52
2022-10-07T09:56:18.065Z,1020.52
2022-10-07T09:57:18.968Z,1020.48
2022-10-07T09:58:18.047Z,1020.50
2022-10-07T09:59:18.038Z,1020.47
2022-10-07T10:00:18.043Z,1020.47
2022-10-07T10:01:18.019Z,1020.51
2022-10-07T10:02:18.112Z,1020.51
2022-10-07T10:03:18.087Z,1020.54
2022-10-07T10:04:17.994Z,1020.51
2022-10-07T10:05:17.995Z,1020.47
2022-10-07T10:06:17.975Z,1020.49
2022-10-07T10:07:17.975Z,1020.49
2022-10-07T10:08:17.954Z,1020.48
2022-10-07T10:09:20.233Z,1020.47
2022-10-07T10:10:17.948Z,1020.45
2022-10-07T10:11:17.928Z,1020.44
2022-10-07T10:12:17.920Z,1020.47
2022-10-07T10:13:17.907Z,1020.45
2022-10-07T10:14:17.899Z,1020.43
2022-10-07T10:15:17.901Z,1020.42
2022-10-07T10:16:17.929Z,1020.38
2022-10-07T10:17:17.871Z,1020.33
2022-10-07T10:18:17.890Z,1020.39
2022-10-07T10:19:17.862Z,1020.33
2022-10-07T10:20:17.855Z,1020.34
2022-10-07T10:21:17.836Z,1020.32
2022-10-07T10:22:17.830Z,1020.30
2022-10-07T10:23:17.822Z,1020.26
2022-10-07T10:24:17.811Z,1020.22
2022-10-07T10:25:17.815Z,1020.17
2022-10-07T10:26:17.791Z,1020.05
2022-10-07T10:27:17.779Z,1020.00
2022-10-07T10:28:17.824Z,1020.01
2022-10-07T10:29:17.759Z,1020.02
2022-10-07T10:30:17.765Z,1020.00
2022-10-07T10:31:17.780Z,1019.92
2022-10-07T10:32:17.733Z,1019.97
2022-10-07T10:33:17.742Z,1019.96
2022-10-07T10:34:17.849Z,1019.96
2022-10-07T10:35:17.718Z,1019.93
2022-10-07T10:36:17.748Z,1019.89
2022-10-07T10:37:17.693Z,1019.87
2022-10-07T10:38:17.704Z,1019.91
2022-10-07T10:39:17.708Z,1019.87
2022-10-07T10:40:19.116Z,1019.92
2022-10-07T10:41:17.641Z,1019.90
2022-10-07T10:42:17.631Z,1019.90
2022-10-07T10:43:17.630Z,1019.81
2022-10-07T10:44:17.611Z,1019.80
2022-10-07T10:45:17.609Z,1019.75
2022-10-07T10:46:17.625Z,1019.79
2022-10-07T10:47:17.579Z,1019.75
2022-10-07T10:48:17.565Z,1019.77
2022-10-07T10:49:17.558Z,1019.70
2022-10-07T10:50:17.643Z,1019.72
2022-10-07T10:51:17.535Z,1019.66
2022-10-07T10:52:17.548Z,1019.64
2022-10-07T10:53:17.514Z,1019.62
2022-10-07T10:54:17.502Z,1019.58
2022-10-07T10:55:17.508Z,1019.54
2022-10-07T10:56:17.480Z,1019.52
2022-10-07T10:57:17.470Z,1019.48
2022-10-07T10:58:17.461Z,1019.50
2022-10-07T10:59:17.451Z,1019.47
2022-10-07T11:00:17.547Z,1019.40
2022-10-07T11:01:17.427Z,1019.41
2022-10-07T11:02:17.496Z,1019.38
2022-10-07T11:03:17.518Z,1019.33
2022-10-07T11:04:17.403Z,1019.31
2022-10-07T11:05:17.418Z,1019.30
2022-10-07T11:06:17.387Z,1019.29
2022-10-07T11:07:17.422Z,1019.29
2022-10-07T11:08:17.445Z,1019.24
2022-10-07T11:09:17.396Z,1019.20
2022-10-07T11:10:17.423Z,1019.25
2022-10-07T11:11:17.319Z,1019.22
2022-10-07T11:12:17.309Z,1019.16
2022-10-07T11:13:17.305Z,1019.15
2022-10-07T11:14:17.310Z,1019.13
2022-10-07T11:15:17.275Z,1019.15
2022-10-07T11:16:17.324Z,1019.12
2022-10-07T11:17:17.258Z,1019.12
2022-10-07T11:18:17.243Z,1019.09
2022-10-07T11:19:17.242Z,1019.01
2022-10-07T11:20:17.303Z,1018.99
2022-10-07T11:21:17.211Z,1018.97
2022-10-07T11:22:17.216Z,1018.93
2022-10-07T11:23:17.189Z,1018.93
2022-10-07T11:24:17.187Z,1018.86
2022-10-07T11:25:17.269Z,1018.84
2022-10-07T11:26:17.158Z,1018.84
2022-10-07T11:27:17.153Z,1018.85
2022-10-07T11:28:17.192Z,1018.82
2022-10-07T11:29:17.136Z,1018.80
2022-10-07T11:30:17.186Z,1018.78
2022-10-07T11:31:17.206Z,1018.77
2022-10-07T11:32:17.094Z,1018.77
2022-10-07T11:33:17.088Z,1018.72
2022-10-07T11:34:17.087Z,1018.72
2022-10-07T11:35:17.065Z,1018.70
2022-10-07T11:36:17.092Z,1018.71
2022-10-07T11:37:17.049Z,1018.61
2022-10-07T11:38:17.046Z,1018.66
2022-10-07T11:39:17.035Z,1018.68
2022-10-07T11:40:17.108Z,1018.64
2022-10-07T11:41:17.002Z,1018.68
2022-10-07T11:42:17.003Z,1018.61
2022-10-07T11:43:16.979Z,1018.60
2022-10-07T11:44:16.984Z,1018.55
2022-10-07T11:45:16.982Z,1018.51
2022-10-07T11:46:17.026Z,1018.48
2022-10-07T11:47:16.937Z,1018.46
2022-10-07T11:48:16.926Z,1018.51
2022-10-07T11:49:16.931Z,1018.52
2022-10-07T11:50:16.958Z,1018.44
2022-10-07T11:51:16.905Z,1018.42
2022-10-07T11:52:16.888Z,1018.46
2022-10-07T11:53:16.879Z,1018.45
2022-10-07T11:54:16.927Z,1018.40
2022-10-07T11:55:16.869Z,1018.38
2022-10-07T11:56:16.864Z,1018.34
2022-10-07T11:57:16.876Z,1018.35
2022-10-07T11:58:16.829Z,1018.32
2022-10-07T11:59:16.834Z,1018.32
2022-10-07T12:00:16.801Z,1018.26
2022-10-07T12:01:16.789Z,1018.26
2022-10-07T12:02:16.824Z,1018.23
2022-10-07T12:03:16.826Z,1018.23
2022-10-07T12:04:16.779Z,1018.20
2022-10-07T12:05:16.759Z,1018.19